Obelix — 7JAX — position and weather

sailwx.info

Track history (hours):
 
Tides and Currents Weather Stations Pressure Air Temp Water Temp Dewpoint Dewpoint Depression Visibility Wind Speed Wind Dir Waves Ship Positions

Obelix

Last reported at 2015-Aug-31 06:32 UTC. Time now 2015-Aug-31 21:47 UTC.
Position N 34°37' E 135°02'.

Length 74 m; draft 4.4 m.

Type: Ship (hazmat cat C). MMSI: 432528000.

Date/timePositionNaut miles runAvg speedWind from/ knotsBaromVisibWave heightAir tempDewpointWater temp
2015-Aug-31 06:32N 34°37' E 135°02'  
2015-Aug-27 08:22N 34°35' E 135°15'9 1.9
2015-Aug-27 03:33N 34°33' E 135°25'0 0.0
2015-Aug-27 02:33N 34°33' E 135°25'1 1.5
2015-Aug-27 01:33N 34°33' E 135°24'4 3.9
2015-Aug-27 00:33N 34°32' E 135°19'0 0.0
2015-Aug-26 23:33N 34°32' E 135°19'1 0.7
2015-Aug-26 22:33N 34°33' E 135°18'1211.6
2015-Aug-26 21:33N 34°35' E 135°05'1010.0
2015-Aug-26 20:33N 34°34' E 134°52'10 0.3
2015-Aug-25 10:33N 34°36' E 135°05'1211.7
2015-Aug-25 09:33N 34°35' E 135°19'6 4.9
2015-Aug-25 08:20N 34°33' E 135°25'0 0.0
2015-Aug-25 07:33N 34°33' E 135°25'0 0.0
2015-Aug-25 04:32N 34°33' E 135°25'1 1.0
2015-Aug-25 03:31N 34°33' E 135°25'7 7.8
2015-Aug-25 02:34N 34°34' E 135°16'1211.5
2015-Aug-25 01:32N 34°36' E 135°02'  
Track history (hours):
 
Tides and Currents Weather Stations Pressure Air Temp Water Temp Dewpoint Dewpoint Depression Visibility Wind Speed Wind Dir Waves Ship Positions

Obelix

Last reported at 2015-Aug-31 06:32 UTC. Time now 2015-Aug-31 21:47 UTC.
Position N 34°37' E 135°02'.

Length 74 m; draft 4.4 m.

Type: Ship (hazmat cat C). MMSI: 432528000.

Date/timePositionNaut miles runAvg speedWind from/ knotsBaromVisibWave heightAir tempDewpointWater temp
2015-Aug-31 06:32N 34°37' E 135°02'  
2015-Aug-27 08:22N 34°35' E 135°15'9 1.9
2015-Aug-27 03:33N 34°33' E 135°25'0 0.0
2015-Aug-27 02:33N 34°33' E 135°25'1 1.5
2015-Aug-27 01:33N 34°33' E 135°24'4 3.9
2015-Aug-27 00:33N 34°32' E 135°19'0 0.0
2015-Aug-26 23:33N 34°32' E 135°19'1 0.7
2015-Aug-26 22:33N 34°33' E 135°18'1211.6
2015-Aug-26 21:33N 34°35' E 135°05'1010.0
2015-Aug-26 20:33N 34°34' E 134°52'10 0.3
2015-Aug-25 10:33N 34°36' E 135°05'1211.7
2015-Aug-25 09:33N 34°35' E 135°19'6 4.9
2015-Aug-25 08:20N 34°33' E 135°25'0 0.0
2015-Aug-25 07:33N 34°33' E 135°25'0 0.0
2015-Aug-25 04:32N 34°33' E 135°25'1 1.0
2015-Aug-25 03:31N 34°33' E 135°25'7 7.8
2015-Aug-25 02:34N 34°34' E 135°16'1211.5
2015-Aug-25 01:32N 34°36' E 135°02'  

Dump ship's entire track history